This is the latest recevied weather packets stored in our database for station/object IW2LAO-13. If no packets are shown the sender has not sent any weather packets the latest 10 day(s).
| Time | Temp. | Humidity | Pressure | Rain* | Wind** | Luminosity | Snow |
|---|---|---|---|---|---|---|---|
| 1777735593 | 23.33° C | 42% | 1018.9 hPa | 0 mm | - | 438 W/m² | - |
| 1777728392 | 23.33° C | 46% | 1020.2 hPa | 0 mm | - | 737 W/m² | - |
| 1777726592 | 23.33° C | 46% | 1020.6 hPa | 0 mm | - | 798 W/m² | - |
| 1777719989 | 21.67° C | 48% | 1022.5 hPa | 0 mm | - | 875 W/m² | - |
| 1777715787 | 20° C | 52% | 1023.5 hPa | 0 mm | - | 824 W/m² | - |
| 1777713987 | 18.89° C | 54% | 1023.9 hPa | 0 mm | - | 777 W/m² | - |
| 1777713382 | 18.33° C | 54% | 1024 hPa | 0 mm | - | 761 W/m² | - |
| 1777711584 | 17.22° C | 55% | 1024.4 hPa | 0 mm | - | 675 W/m² | - |
| 1777707976 | 15.56° C | 67% | 1025.1 hPa | 0 mm | - | 475 W/m² | - |
| 1777707384 | 15° C | 68% | 1025.3 hPa | 0 mm | - | 455 W/m² | - |
| 1777706179 | 13.89° C | 69% | 1025.4 hPa | 0 mm | - | 429 W/m² | - |
| 1777693569 | 9.44° C | 80% | 1025.9 hPa | 0 mm | - | 0 W/m² | - |
| 1777692969 | 10° C | 79% | 1025.9 hPa | 0 mm | - | 0 W/m² | - |
| 1777689968 | 8.89° C | 82% | 1026 hPa | 0 mm | - | 0 W/m² | - |
| 1777686967 | 9.44° C | 81% | 1025.9 hPa | 0 mm | - | 0 W/m² | - |
| 1777685768 | 10.56° C | 77% | 1025.8 hPa | 0 mm | - | 0 W/m² | - |
| 1777683968 | 9.44° C | 81% | 1025.9 hPa | 0 mm | - | 0 W/m² | - |
| 1777680967 | 10° C | 79% | 1025.8 hPa | 0 mm | - | 0 W/m² | - |
| 1777680374 | 10° C | 80% | 1025.8 hPa | 0 mm | - | 0 W/m² | - |
| 1777673768 | 11.67° C | 74% | 1025.6 hPa | 0 mm | - | 0 W/m² | - |
| 1777670164 | 12.78° C | 69% | 1025.3 hPa | 0 mm | - | 0 W/m² | - |
| 1777668367 | 13.33° C | 66% | 1025.1 hPa | 0 mm | - | 0 W/m² | - |
| 1777667764 | 13.33° C | 66% | 1025.1 hPa | 0 mm | - | 0 W/m² | - |
| 1777664164 | 14.44° C | 63% | 1024.5 hPa | 0 mm | - | 0 W/m² | - |
| 1777663564 | 15° C | 62% | 1024.4 hPa | 0 mm | - | 0 W/m² | - |
* Rain latest hour (hover to see other rain measurements)
** Current wind speed in m/s (hover to see current wind gust speed)